Date,TemperatureHighF,TemperatureAvgF,TemperatureLowF,DewpointHighF,DewpointAvgF,DewpointLowF,HumidityHigh,HumidityAvg,HumidityLow,PressureMaxIn,PressureMinIn,WindSpeedMaxMPH,WindSpeedAvgMPH,GustSpeedMaxMPH,PrecipitationSumIn
2014-1-1,44.7,43.3,41.0,43.4,42.2,40.2,97,96,95,30.42,30.26,3,1,5,0.04
2014-1-2,47.0,44.6,43.0,46.0,43.4,35.8,98,96,75,30.26,29.90,21,3,27,0.50
2014-1-3,46.8,41.4,33.0,41.8,35.9,31.2,94,81,66,30.40,30.01,18,5,21,0.00
2014-1-4,43.6,38.3,32.9,38.7,34.7,30.8,93,87,78,30.50,30.40,5,3,7,0.00
2014-1-5,43.7,38.4,33.5,38.2,35.0,31.4,93,87,75,30.55,30.36,5,2,7,0.00
2014-1-6,42.2,39.8,36.9,38.9,37.0,35.0,94,90,86,30.36,30.12,4,1,5,0.00
2014-1-7,44.2,42.1,38.5,43.7,41.2,36.7,98,96,92,30.12,29.97,4,1,5,0.27
2014-1-8,43.1,42.2,41.9,42.6,41.7,41.4,98,98,98,29.99,29.97,2,1,3,0.00
2014-1-9,48.9,46.4,43.4,45.5,43.2,39.7,95,89,80,29.86,29.67,6,2,14,0.00
2014-1-10,51.0,46.9,44.4,44.9,43.7,41.8,98,89,73,30.06,29.37,25,4,29,0.56
2014-1-11,48.0,46.0,44.3,47.5,43.4,37.0,98,91,69,29.81,29.22,15,4,20,0.92
2014-1-12,47.1,45.1,42.9,41.2,39.1,36.9,92,80,68,29.98,29.82,14,5,20,0.02
2014-1-14,50.6,48.1,44.5,47.9,45.5,41.5,95,90,84,30.67,30.58,7,2,10,0.00
2014-1-15,49.6,45.1,41.7,46.4,42.8,39.2,98,92,78,30.64,30.55,8,2,9,0.00
2014-1-16,45.5,44.0,42.2,43.2,42.3,40.6,98,94,90,30.55,30.38,4,2,6,0.00
2014-1-17,44.0,42.7,41.5,42.4,41.3,40.4,100,95,92,30.38,30.23,3,2,7,0.00
2014-1-20,38.8,38.0,37.3,37.2,36.4,35.7,95,94,94,30.33,30.31,5,3,5,0.00
2014-1-21,47.3,43.3,37.5,43.7,41.0,35.9,96,92,87,30.33,30.24,6,2,6,0.00
2014-1-22,45.5,44.6,43.2,44.1,43.0,41.8,98,94,88,30.44,30.33,4,1,6,0.02
2014-1-23,44.0,42.0,38.4,41.5,40.0,36.4,95,93,86,30.51,30.42,4,2,6,0.00
2014-1-24,47.9,41.9,37.3,44.1,39.6,35.3,98,91,83,30.46,30.32,6,2,8,0.00
2014-1-25,44.4,38.5,33.8,41.5,37.3,33.3,98,95,84,30.40,30.30,5,2,5,0.00
2014-1-26,44.6,38.2,33.5,44.3,37.8,33.0,99,99,97,30.30,30.12,3,1,5,0.01
2014-1-27,40.9,39.1,37.1,40.6,38.8,36.8,99,99,98,30.24,30.14,4,1,7,0.15
2014-1-28,45.7,43.5,40.8,45.5,43.0,40.5,100,98,95,30.23,30.07,2,1,4,0.00
2014-1-29,46.4,44.8,41.8,46.1,44.0,40.6,99,97,93,29.81,29.70,5,2,10,0.62
2014-1-30,44.8,42.2,39.7,43.0,41.1,38.7,100,96,93,29.95,29.80,3,2,6,0.14
2014-1-31,45.1,39.8,34.8,38.9,34.7,31.2,95,83,62,30.17,29.95,6,2,7,0.02
2014-2-1,47.6,41.8,37.9,40.7,38.1,35.8,93,87,71,30.19,30.10,4,2,8,0.00
2014-2-2,42.2,40.6,38.1,38.8,35.7,25.7,90,83,57,30.11,30.00,6,2,10,0.00
2014-2-3,40.2,36.5,29.1,27.8,21.4,15.1,73,55,37,30.26,30.07,5,2,10,0.00
2014-2-4,34.0,31.9,28.6,24.7,21.9,17.9,75,66,55,30.44,30.26,6,3,11,0.00
2014-2-5,32.1,28.5,23.1,23.9,14.7,7.3,75,56,40,30.50,30.32,5,3,16,0.00
2014-2-6,30.5,25.8,22.0,15.3,9.7,7.1,70,51,38,30.32,29.81,7,4,11,0.00
2014-2-7,35.3,28.2,20.2,26.2,19.2,14.1,79,69,48,29.95,29.82,7,3,14,0.00
2014-2-8,39.1,34.4,26.2,27.5,21.6,14.8,70,59,47,30.06,29.88,9,3,14,0.00
2014-2-9,39.6,36.7,32.3,34.8,31.6,24.1,91,82,65,30.10,29.95,4,1,6,0.00
2014-2-10,48.2,41.7,34.4,45.9,39.7,31.8,97,93,74,30.06,29.92,8,2,11,0.44
2014-2-11,49.0,43.7,37.0,42.7,39.8,33.8,97,86,67,30.11,29.38,6,2,10,0.12
2014-2-12,52.4,45.8,41.7,49.2,42.0,39.7,97,87,75,29.87,29.29,32,7,36,0.06
2014-2-13,56.4,46.4,42.0,44.2,40.8,36.8,97,82,49,30.05,29.69,9,3,20,0.12
2014-2-14,54.1,45.8,40.1,46.5,42.1,38.0,97,87,71,29.94,29.50,18,3,22,0.20
2014-2-15,46.0,41.6,37.5,45.2,39.9,36.5,97,93,85,29.94,29.11,9,2,13,0.36
2014-2-16,48.1,41.9,35.7,42.4,38.6,34.3,100,88,62,29.89,29.58,11,2,16,0.80
2014-2-17,48.3,42.4,39.0,44.0,39.9,36.2,97,91,76,29.91,29.67,14,3,17,0.27
2014-2-18,45.8,40.6,36.6,44.6,38.1,35.3,100,91,76,29.91,29.54,10,3,17,0.48
2014-2-19,48.4,41.8,37.4,39.6,36.9,33.9,94,83,57,30.10,29.84,22,4,26,0.07
2014-2-20,47.5,44.5,40.2,42.8,38.7,33.2,95,80,65,30.21,29.95,25,8,31,0.03
2014-2-21,44.5,41.8,37.8,39.4,35.0,32.3,85,77,69,30.30,30.20,24,6,25,0.01
2014-2-22,39.0,37.7,35.4,37.8,35.0,31.5,97,90,78,30.25,30.03,4,1,6,0.20
2014-2-23,38.4,36.4,35.0,37.6,35.7,34.2,98,97,97,30.09,29.98,5,2,10,0.48
2014-2-24,38.7,37.2,35.8,38.0,36.6,35.3,98,98,97,30.17,30.08,8,4,16,0.79
2014-2-25,44.3,40.7,37.3,38.2,36.3,34.1,97,85,71,30.19,30.03,7,2,14,0.00
2014-2-26,45.6,41.5,36.0,40.5,38.1,34.7,96,88,76,30.03,29.74,5,2,8,0.00
2014-2-27,47.7,43.0,37.5,43.9,40.5,36.4,96,91,81,29.74,29.67,4,1,4,0.00
2014-2-28,51.4,45.9,39.2,43.0,37.2,28.4,93,72,54,29.71,29.60,6,2,10,0.00
2014-3-1,43.0,40.9,39.0,38.0,33.4,27.9,93,75,59,29.69,29.60,11,4,18,0.00
2014-3-2,43.8,41.4,39.5,42.5,40.2,37.6,100,95,91,29.69,29.52,4,1,7,0.14
2014-3-3,50.4,44.7,40.2,48.2,43.5,39.7,98,95,84,29.81,29.63,17,3,23,0.19
2014-3-4,43.3,41.3,40.3,40.7,40.1,39.0,97,96,88,29.96,29.84,5,2,10,0.06
2014-3-5,52.6,45.8,41.1,49.0,44.6,40.5,98,96,86,29.84,29.36,5,1,10,0.85
2014-3-6,54.7,48.9,44.8,52.4,47.3,43.7,99,94,85,30.04,29.37,18,3,21,0.72
2014-3-7,52.1,47.3,42.2,49.4,45.9,41.1,97,95,89,30.26,30.04,7,2,7,0.00
2014-3-8,50.3,45.8,41.9,50.0,45.0,40.8,99,97,95,30.09,29.68,6,1,14,0.81
2014-3-9,52.2,49.6,45.1,50.3,47.7,43.9,99,93,87,30.02,29.78,16,3,19,0.01
2014-3-10,49.5,47.3,43.7,46.6,43.3,36.7,94,86,72,30.46,29.97,22,9,26,0.01
2014-3-11,50.3,44.2,38.0,46.6,39.6,33.5,96,84,73,30.59,30.46,8,3,12,0.00
2014-3-12,52.2,44.9,37.9,46.1,41.2,36.9,97,88,66,30.46,30.18,5,2,9,0.00
2014-3-13,49.4,45.5,38.4,44.9,42.4,37.1,96,89,79,30.21,29.97,6,2,6,0.02
2014-3-14,56.1,48.8,44.6,47.6,44.0,40.7,96,84,61,30.33,29.83,19,5,27,0.16
2014-3-15,50.8,48.2,43.7,49.1,45.7,40.5,97,91,77,30.33,30.09,8,3,11,0.56
2014-3-16,51.6,46.5,43.6,48.0,44.2,38.4,97,92,78,30.19,30.00,22,4,26,0.38
2014-3-17,47.4,45.2,43.3,39.7,36.1,32.1,79,71,57,30.33,30.02,22,9,29,0.00
2014-3-18,46.5,44.5,42.5,45.3,42.9,37.3,97,94,74,30.33,30.17,2,0,4,0.11
2014-3-19,47.1,44.8,41.0,45.9,41.1,32.4,98,88,65,30.21,30.02,26,6,35,0.25
2014-3-20,46.3,43.0,39.5,40.7,37.1,33.9,86,80,66,30.38,30.21,18,7,24,0.00
2014-3-21,49.1,40.7,35.3,41.5,34.9,29.9,95,80,50,30.40,30.33,7,3,9,0.16
2014-3-22,45.7,40.4,33.4,41.2,35.7,29.8,95,83,70,30.34,30.26,6,2,7,0.05
2014-3-23,48.0,44.3,41.9,41.8,39.7,37.9,96,84,71,30.37,30.28,6,2,11,0.00
2014-3-24,56.2,47.2,39.6,43.9,40.6,36.9,90,78,55,30.28,29.85,7,2,12,0.00
2014-3-25,55.6,49.1,44.0,48.7,44.8,40.1,96,85,56,29.84,29.44,10,3,14,0.37
2014-3-26,48.1,45.3,40.5,45.6,43.1,39.7,97,92,87,29.59,29.49,7,2,7,0.01
2014-3-27,50.4,46.6,43.1,46.7,44.3,41.8,96,92,83,29.84,29.55,4,1,5,0.01
2014-3-28,52.3,46.4,42.4,48.0,44.8,41.4,97,94,83,29.85,29.61,13,3,14,0.04
2014-3-29,51.3,47.3,44.3,47.6,45.0,43.4,97,92,83,29.73,29.61,7,2,12,0.40
2014-3-30,50.1,46.7,40.2,46.0,43.4,39.2,96,88,78,29.99,29.87,9,2,9,0.05
2014-3-31,52.2,45.3,37.4,44.7,40.8,36.6,98,85,66,29.99,29.76,5,2,9,0.00
2014-4-1,60.1,49.2,40.9,46.4,40.8,33.4,90,74,39,29.90,29.77,12,4,13,0.00
2014-4-2,51.3,48.2,43.1,46.3,41.7,35.7,87,78,66,30.01,29.90,11,4,14,0.00
2014-4-3,50.5,46.7,42.8,48.3,43.5,40.1,94,89,80,29.98,29.81,6,2,11,0.04
2014-4-4,50.5,45.9,40.2,45.8,43.2,38.9,96,91,81,29.96,29.87,9,2,9,0.04
2014-4-5,51.1,47.1,42.0,49.7,45.0,41.2,97,93,80,30.08,29.95,21,3,30,0.04
2014-4-6,55.8,50.3,47.1,49.8,46.8,44.2,95,88,74,30.29,30.08,13,2,17,0.00
2014-4-7,57.0,51.7,48.9,51.0,48.8,47.2,94,90,75,30.28,30.10,13,2,14,0.00
2014-4-8,52.8,50.2,47.3,51.4,47.6,39.6,96,91,72,30.18,30.07,27,6,33,0.11
2014-4-9,50.7,47.5,43.7,44.6,41.4,37.1,89,79,69,30.28,30.17,17,8,22,0.00
2014-4-10,51.2,47.9,43.4,45.9,41.3,35.6,84,78,66,30.28,30.18,13,6,18,0.00
2014-4-11,52.5,49.7,46.9,49.3,45.4,41.9,95,85,75,30.19,30.07,23,9,32,0.00
2014-4-12,61.5,50.0,45.1,48.0,43.0,35.2,90,78,38,30.21,30.09,12,3,14,0.00
2014-4-13,59.3,49.6,41.5,46.4,39.7,34.1,84,70,40,30.35,30.21,7,3,11,0.00
2014-4-14,51.9,50.4,48.5,48.2,43.4,38.5,92,77,61,30.16,30.10,30,16,33,0.00
2014-4-15,50.1,48.8,46.9,40.6,38.2,35.2,74,67,58,30.17,30.14,17,9,21,0.00
2014-4-16,50.8,49.2,47.7,49.3,47.9,46.6,97,95,92,30.02,29.88,3,0,4,0.12
2014-4-17,51.9,49.4,45.8,51.1,48.5,44.2,98,97,91,29.90,29.70,29,2,36,0.26
2014-4-18,51.2,48.4,43.3,45.4,42.6,37.2,92,81,61,30.13,29.90,12,4,15,0.00
2014-4-19,51.5,46.9,42.5,48.0,43.4,40.5,93,88,75,30.14,29.74,7,2,10,0.14
2014-4-20,46.6,43.1,40.4,42.8,40.3,38.5,94,90,83,30.25,30.15,6,3,10,0.00
2014-4-21,49.9,47.5,45.6,48.0,45.3,42.4,95,92,85,30.06,29.86,17,6,19,0.05
2014-4-22,53.8,47.7,43.6,45.0,42.4,39.1,95,82,67,29.88,29.82,12,3,15,0.08
2014-4-23,51.5,47.2,41.6,47.6,44.9,40.5,97,92,81,29.87,29.56,4,1,6,0.11
2014-4-24,54.4,49.5,44.9,50.0,46.2,41.9,100,89,73,29.89,29.51,16,3,20,0.31
2014-4-25,52.6,47.5,43.2,46.5,43.8,41.2,96,87,73,29.92,29.84,13,4,16,0.06
2014-4-26,52.8,47.7,40.7,47.1,42.2,37.5,91,81,61,29.84,29.56,12,3,14,0.00
2014-4-27,50.9,47.1,43.8,45.7,42.6,39.9,93,84,76,30.10,29.60,15,4,24,0.06
2014-4-28,54.4,48.5,40.6,47.5,43.2,38.1,91,82,72,30.37,30.10,7,2,8,0.00
2014-4-29,64.4,54.0,46.4,48.2,45.4,42.9,92,74,46,30.52,30.37,5,2,6,0.00
2014-4-30,68.5,59.0,47.8,50.4,46.5,42.0,83,64,46,30.42,30.18,6,2,7,0.00
2014-5-1,74.4,62.9,51.7,53.5,48.0,44.8,79,59,39,30.18,29.95,7,2,7,0.00
2014-5-2,57.2,54.9,51.7,53.4,51.1,48.3,92,87,82,30.04,29.90,16,10,20,0.00
2014-5-3,55.3,51.4,47.7,50.9,48.7,45.2,96,91,80,29.91,29.68,17,2,20,0.01
2014-5-4,55.9,51.0,48.3,51.0,48.8,47.2,96,92,78,29.84,29.68,3,1,5,0.20
2014-5-5,57.3,53.0,49.2,53.0,50.3,48.1,97,91,80,30.03,29.84,15,3,17,0.01
2014-5-6,55.0,52.2,49.2,49.7,46.7,42.5,88,82,71,30.05,30.01,18,7,22,0.00
2014-5-7,56.3,51.5,44.4,50.5,47.4,41.5,90,86,79,30.05,29.88,17,5,22,0.00
2014-5-8,53.5,51.6,50.5,50.7,49.0,46.3,96,91,83,29.88,29.62,5,2,10,0.17
2014-5-9,55.6,51.5,48.6,50.3,46.5,44.0,92,83,72,30.00,29.68,12,4,14,0.02
2014-5-10,54.9,51.3,46.5,50.4,46.7,42.5,89,84,77,30.29,30.00,18,8,22,0.01
2014-5-11,57.9,53.0,48.0,51.8,48.3,43.7,89,84,76,30.35,30.28,12,5,16,0.00
2014-5-12,67.1,56.3,47.4,53.5,49.6,45.5,93,80,50,30.38,30.29,4,2,6,0.00
2014-5-13,72.4,63.5,53.8,53.5,50.3,45.9,79,63,41,30.41,30.32,5,2,6,0.00
2014-5-14,72.1,61.5,53.4,54.5,49.7,45.7,77,66,52,30.34,30.24,5,2,8,0.00
2014-5-15,72.0,68.5,60.5,56.6,55.4,52.0,77,63,55,30.08,29.94,12,2,12,0.00
2014-5-16,58.9,56.7,55.1,52.4,51.6,50.4,88,83,76,30.10,30.07,12,5,15,0.00
2014-5-17,57.2,54.8,52.9,52.6,51.2,49.9,93,88,82,30.08,29.88,11,3,12,0.00
2014-5-18,57.7,54.6,51.4,52.9,50.6,48.4,93,87,76,29.90,29.83,16,4,16,0.00
2014-5-19,58.1,54.5,50.2,52.6,50.4,46.8,92,86,77,30.09,29.90,17,6,18,0.00
2014-5-20,55.3,53.9,52.5,51.5,49.8,47.6,92,86,80,30.16,30.08,23,11,28,0.00
2014-5-21,56.6,54.0,51.5,52.1,49.6,46.3,92,85,77,30.18,30.15,19,7,22,0.00
2014-5-22,54.9,54.3,53.7,52.6,52.1,51.4,93,92,91,30.17,30.11,3,1,4,0.00
2014-5-23,59.6,56.2,53.0,56.4,53.7,51.0,96,91,85,30.15,29.99,15,6,19,0.17
2014-5-24,56.6,54.2,51.1,51.7,50.7,49.1,94,88,81,30.20,30.14,12,5,14,0.00
2014-5-25,54.8,53.2,51.1,51.5,50.1,48.9,96,89,82,30.15,30.00,5,2,7,0.02
2014-5-26,55.7,53.8,51.8,51.8,49.6,48.2,97,86,76,30.18,30.05,20,10,21,0.11
2014-5-27,55.8,53.4,50.6,50.6,48.6,44.1,89,84,75,30.17,30.11,20,6,22,0.00
2014-5-28,56.5,53.5,51.2,52.1,47.8,44.4,89,81,72,30.11,30.09,18,7,21,0.00
2014-5-29,56.8,53.7,52.0,51.7,49.0,47.2,90,84,77,30.25,30.20,11,4,12,0.00
2014-5-30,65.7,54.7,48.8,52.0,49.2,46.3,92,82,60,30.21,30.03,15,4,17,0.00
2014-5-31,58.8,55.2,53.1,54.3,51.7,48.8,92,88,82,30.10,30.05,18,7,20,0.00
2014-6-1,57.1,54.2,51.6,53.9,51.4,49.3,94,90,86,30.11,29.99,15,5,16,0.00
2014-6-2,55.6,51.5,49.8,53.3,50.5,49.1,98,96,92,30.00,29.88,16,6,18,0.00
2014-6-3,52.8,52.4,51.9,51.1,50.5,50.1,95,93,93,30.03,29.96,3,1,4,0.00
2014-6-4,55.5,54.3,53.1,50.8,49.7,48.1,86,84,81,30.14,30.12,16,7,21,0.00
2014-6-5,66.7,55.8,48.4,52.5,49.1,45.6,91,79,53,30.18,30.11,15,3,16,0.00
2014-6-6,58.9,54.6,48.8,53.1,50.8,46.0,93,87,74,30.15,30.11,20,9,26,0.00
2014-6-7,58.5,54.0,52.3,55.6,52.5,51.0,97,95,89,30.22,30.13,21,10,24,0.00
2014-6-8,61.2,55.7,53.6,56.0,53.5,52.3,96,93,76,30.22,30.11,22,12,24,0.00
2014-6-9,58.4,55.1,53.5,53.3,51.6,49.3,94,88,75,30.18,30.14,18,9,22,0.00
2014-6-10,57.7,56.1,54.1,52.8,51.9,51.0,90,86,83,30.13,30.10,15,8,24,0.00
2014-6-11,58.0,54.9,50.5,55.2,52.0,47.8,95,90,86,30.10,29.85,14,4,15,0.00
2014-6-12,56.2,54.8,53.5,53.0,51.5,50.5,92,89,85,29.86,29.82,16,8,20,0.04
2014-6-13,57.0,54.8,52.4,53.3,51.4,48.9,95,88,83,30.10,29.85,18,7,23,0.07
2014-6-14,56.1,54.5,52.1,52.6,50.9,49.2,92,88,81,30.12,30.05,17,7,21,0.00
2014-6-15,55.6,53.1,52.1,50.4,48.8,45.3,92,86,75,29.91,29.85,25,13,31,0.01
2014-6-16,59.8,54.6,50.0,51.4,48.1,45.3,92,79,66,29.97,29.85,15,4,17,0.05
2014-6-17,57.6,54.2,52.3,52.5,50.7,49.2,91,88,82,30.13,29.96,22,8,24,0.00
2014-6-18,59.3,55.3,52.6,53.1,50.0,47.6,89,82,73,30.12,30.04,10,4,15,0.00
2014-6-19,60.6,56.3,52.1,55.4,53.7,50.5,96,91,80,30.04,29.95,25,4,32,0.03
2014-6-20,55.3,52.8,51.3,50.6,47.0,45.4,94,81,70,30.12,30.02,10,6,15,0.00
2014-6-21,57.5,52.7,52.4,51.3,43.3,-99.9,89,79,72,30.15,30.07,16,-37,18,0.00
2014-6-22,61.3,26.8,53.8,52.3,-29.5,-99.9,93,37,66,30.12,30.01,15,-530,17,0.00
2014-6-23,-200.0,0.0,200.0,-99.9,-99.9,-99.9,0,0,100,30.08,29.99,0,-999,0,0.00
2014-6-24,65.2,12.2,58.6,59.6,-67.9,-99.9,93,18,83,30.11,30.07,3,-796,6,0.00
2014-6-25,58.3,55.2,51.9,56.6,53.7,50.8,98,95,92,29.95,29.80,12,5,13,0.00
2014-6-26,59.8,57.2,52.4,55.7,53.1,50.4,99,87,77,29.81,29.77,19,10,21,0.01
2014-6-27,59.5,56.4,52.3,57.2,54.0,50.6,96,92,77,29.86,29.68,16,4,19,0.07
2014-6-28,59.1,56.7,54.1,57.9,55.1,52.6,97,94,89,30.00,29.86,10,3,12,0.03
2014-6-29,61.8,58.0,54.4,56.2,54.7,53.0,96,89,81,30.26,30.13,13,4,14,0.01
2014-6-30,70.8,61.0,51.9,58.6,54.0,50.8,97,79,54,30.27,30.05,4,2,9,0.00
2014-7-1,82.1,67.4,55.3,60.7,55.2,50.5,86,66,42,30.04,29.75,12,2,20,0.00
2014-7-2,66.3,59.5,56.4,55.4,53.8,52.1,88,82,65,30.03,29.76,24,13,29,0.00
2014-7-3,60.8,57.3,54.3,55.3,52.6,50.7,95,85,70,30.13,30.03,12,5,16,0.00
2014-7-4,59.2,56.0,52.7,56.6,52.3,48.9,93,87,79,30.09,30.04,17,5,19,0.03
2014-7-5,61.1,57.1,55.1,57.5,54.1,52.4,95,90,83,30.18,30.05,9,2,10,0.01
2014-7-6,66.0,61.3,56.9,63.1,58.6,54.7,97,91,84,30.19,30.12,11,2,12,0.00
2014-7-7,65.0,59.0,56.7,60.8,57.7,54.6,99,95,83,30.17,30.07,15,5,17,0.00
2014-7-8,63.2,57.3,53.5,57.5,55.1,52.9,99,92,80,30.09,30.01,17,8,21,0.00
2014-7-9,61.6,56.9,55.4,57.3,55.1,53.9,96,94,86,30.05,30.00,16,5,22,0.00
2014-7-13,58.9,55.5,53.1,56.0,53.7,52.1,97,94,89,30.11,30.04,17,9,20,0.00
2014-7-14,55.6,54.3,52.8,54.8,53.5,52.3,98,97,95,30.14,30.07,18,10,20,0.00
2014-7-15,57.7,53.5,52.0,56.6,52.8,51.5,100,98,94,30.13,30.00,16,7,18,0.00
2014-7-16,62.3,53.3,49.5,58.7,52.4,49.2,99,97,86,30.04,29.93,16,5,19,0.00
2014-7-17,61.9,56.9,54.3,57.7,54.6,52.6,96,92,83,30.03,29.94,12,3,14,0.00
2014-7-18,61.2,56.6,53.1,58.2,54.0,51.1,95,91,84,30.11,30.00,26,6,29,0.00
2014-7-19,63.6,58.5,55.5,60.0,56.9,54.1,97,94,88,30.06,29.94,17,6,23,0.00
2014-7-20,61.1,56.4,54.0,55.2,53.9,51.7,96,92,75,29.99,29.94,15,7,18,0.00
2014-7-21,59.8,56.3,51.3,54.6,52.6,48.6,93,88,79,30.05,29.99,17,5,19,0.00
2014-7-22,62.1,58.4,55.4,54.4,53.2,51.4,92,83,73,30.08,30.00,7,2,9,0.00
2014-7-23,61.4,57.4,54.2,56.9,53.8,51.1,94,88,81,30.03,29.94,7,2,13,0.02
2014-7-24,60.2,56.7,54.3,54.8,53.6,52.0,94,89,81,30.22,30.00,25,8,30,0.04
2014-7-25,61.9,58.0,54.9,55.9,54.1,52.3,92,87,78,30.20,30.11,15,4,16,0.00
2014-7-26,61.2,57.2,51.5,55.8,53.7,50.1,98,88,80,30.20,30.12,17,7,19,0.00
2014-7-27,65.8,58.0,52.1,58.0,54.4,51.0,97,88,71,30.22,30.11,14,5,16,0.00
2014-7-28,64.1,57.5,54.1,57.2,54.9,52.6,96,91,77,30.15,30.08,16,6,20,0.00
2014-7-29,62.6,56.6,51.4,59.9,55.2,51.0,99,95,89,30.17,30.09,21,10,25,0.00
2014-7-30,66.2,57.9,52.8,57.5,53.7,49.6,100,87,55,30.18,30.10,16,8,20,0.00
2014-7-31,67.0,58.7,53.8,56.8,53.6,51.2,93,84,59,30.14,30.04,15,5,17,0.00
2014-8-1,63.5,57.2,52.1,58.2,54.3,51.0,97,90,80,30.08,29.96,12,4,13,0.00
2014-8-2,70.1,58.0,53.6,58.4,55.1,52.3,96,90,63,30.02,29.94,12,4,15,0.00
2014-8-3,65.9,58.0,54.1,59.2,55.2,52.7,97,91,75,30.08,29.96,11,3,14,0.00
2014-8-4,59.0,57.2,55.3,56.7,55.4,54.2,97,94,90,30.02,29.94,16,11,20,0.00
2014-8-5,61.5,57.7,55.7,58.1,56.2,54.6,97,94,86,30.09,29.97,20,8,25,0.00
2014-8-6,62.7,57.5,54.9,58.1,55.6,54.1,100,94,83,30.15,30.08,15,8,18,0.00
2014-8-7,62.3,56.1,53.6,57.1,54.4,52.8,99,94,82,30.11,30.06,16,8,19,0.00
2014-8-8,63.7,58.6,55.4,57.1,54.6,52.2,93,87,74,30.14,30.05,14,6,19,0.00
2014-8-9,63.9,56.3,52.7,56.1,53.9,52.2,99,92,75,30.18,30.11,16,6,17,0.00
2014-8-10,80.4,66.7,54.5,59.5,55.7,52.3,93,71,44,30.16,29.99,11,2,14,0.00
2014-8-11,80.3,69.3,60.4,63.7,58.9,53.8,83,70,51,29.92,29.82,10,2,11,0.00
2014-8-12,73.6,59.8,54.5,60.5,56.2,52.8,95,88,60,29.91,29.80,15,5,17,0.00
2014-8-13,64.3,60.3,55.1,63.4,59.1,54.3,98,96,87,30.02,29.84,5,1,14,0.63
2014-8-14,63.9,58.5,54.7,63.6,58.0,54.1,99,98,93,30.04,29.97,7,1,8,0.11
2014-8-15,58.4,56.3,54.2,57.8,55.9,53.6,99,99,98,30.02,29.98,5,1,7,0.00
2014-8-16,59.0,56.6,53.7,58.3,55.8,53.1,99,97,95,30.15,30.11,14,7,16,0.00
2014-8-17,63.5,55.1,52.6,58.9,54.3,52.3,99,97,82,30.15,30.05,13,5,15,0.00
2014-8-18,72.5,59.1,52.6,62.7,56.1,51.8,100,91,70,30.06,29.95,9,2,13,0.00
2014-8-19,64.5,58.4,54.9,59.3,55.8,53.5,98,91,80,29.86,29.81,19,9,22,0.00
2014-8-20,64.5,58.2,54.8,58.1,54.9,52.5,93,89,78,30.00,29.83,9,3,11,0.00
2014-8-21,60.4,56.3,53.4,55.7,53.5,51.3,94,90,83,30.05,29.98,14,3,18,0.00
2014-8-22,59.7,53.8,51.3,56.1,52.7,50.8,99,96,87,30.10,30.00,13,4,13,0.00
2014-8-23,59.0,52.8,50.5,56.3,52.0,49.8,99,97,89,30.16,30.00,16,4,18,0.00
2014-8-24,61.4,56.4,52.3,58.5,55.2,52.0,99,96,88,30.01,29.93,12,4,15,0.00
2014-8-25,70.0,57.1,53.5,61.7,54.5,52.1,97,91,75,30.05,29.99,5,2,7,0.01
2014-9-5,69.4,64.1,61.9,57.6,54.7,51.1,76,72,62,30.07,30.05,8,5,10,0.00
2014-9-6,76.6,66.4,56.5,59.0,53.8,49.5,80,65,46,30.06,29.86,6,2,7,0.00
2014-9-7,63.5,56.7,53.3,57.9,52.2,47.9,97,85,66,29.90,29.81,13,5,15,0.00
2014-9-8,60.3,56.5,53.5,57.2,54.8,52.7,98,94,87,29.95,29.84,14,6,18,0.00
2014-9-9,57.3,55.5,54.2,54.2,53.3,51.9,96,92,88,30.15,29.96,12,4,13,0.00
2014-9-10,69.7,61.3,53.9,53.4,37.6,27.5,96,48,22,30.27,30.15,8,3,9,0.00
2014-9-11,65.8,59.8,52.0,45.8,38.4,34.5,62,46,32,30.33,30.15,6,3,7,0.00
2014-9-12,70.9,59.5,49.5,49.4,40.9,36.3,71,51,30,30.15,29.97,8,4,10,0.00
2014-9-13,74.3,62.0,50.5,50.1,42.5,33.9,70,50,23,30.01,29.86,7,3,10,0.00
2014-9-14,72.6,61.6,51.2,51.7,45.8,38.5,72,57,41,29.95,29.85,7,2,7,0.00
2014-9-15,75.7,63.0,53.3,52.4,47.8,44.3,75,59,34,29.89,29.79,4,2,6,0.00
2014-9-16,62.2,59.3,54.4,57.5,53.0,45.0,92,80,56,29.90,29.82,15,5,17,0.00
2014-9-17,61.2,61.0,60.7,57.7,57.4,57.1,89,88,87,29.86,29.82,4,1,7,0.00
2014-9-18,62.3,60.9,59.6,60.1,59.0,58.1,96,94,89,29.96,29.86,3,1,4,0.03
2014-9-19,65.0,59.4,52.8,62.0,57.8,52.2,98,94,87,30.14,29.96,7,1,10,0.01
2014-9-20,66.8,61.2,52.5,60.2,57.8,51.7,98,89,75,30.16,29.91,6,2,7,0.00
2014-9-21,65.4,61.3,56.3,58.8,57.5,53.2,91,87,74,29.92,29.86,18,7,22,0.00
2014-9-22,66.3,62.1,58.2,60.3,58.5,56.2,96,88,77,29.98,29.92,5,1,6,0.00
2014-9-23,61.0,58.8,55.8,59.4,57.7,55.2,98,96,91,29.75,29.60,4,1,6,0.13
2014-9-24,63.6,59.2,54.9,61.7,58.0,54.1,99,96,89,29.84,29.59,6,1,9,0.07
2014-9-25,59.2,56.7,54.9,57.7,55.9,54.1,99,97,94,29.85,29.81,3,1,6,0.05
2014-9-26,61.0,56.7,53.8,60.4,55.8,53.2,99,97,93,30.13,29.83,8,1,11,0.22
2014-9-27,59.1,55.1,50.3,56.1,52.7,48.9,96,92,87,30.18,30.11,8,2,14,0.22
2014-9-28,66.7,56.4,48.3,58.4,53.1,47.5,97,89,74,30.11,29.89,9,2,15,0.00
2014-9-29,61.4,57.6,53.5,58.0,53.5,50.3,98,87,70,29.97,29.86,18,3,21,0.03
2014-9-30,62.0,57.8,55.4,54.3,51.6,48.6,92,80,71,30.16,29.96,18,7,24,0.03
2014-10-1,58.5,56.8,54.5,52.2,50.1,47.0,85,78,71,30.23,30.16,17,5,26,0.00
2014-10-2,60.5,54.2,48.0,52.9,48.5,44.2,90,81,70,30.33,30.20,6,2,12,0.00
2014-10-3,60.8,54.0,47.3,52.9,48.8,45.1,93,83,62,30.32,30.14,4,1,6,0.00
2014-10-4,62.0,56.5,53.6,55.3,52.6,50.7,94,87,74,30.22,30.14,4,1,9,0.00
2014-10-5,67.4,60.2,54.6,60.2,56.1,52.0,95,86,76,30.17,30.08,4,1,7,0.00
2014-10-6,64.1,58.5,53.7,63.5,57.6,52.3,99,97,92,30.09,29.99,6,1,7,0.00
2014-10-7,59.6,55.7,53.2,59.3,55.4,52.9,99,99,98,30.00,29.96,4,0,6,0.00
2014-10-8,56.6,52.7,50.9,56.3,52.4,50.4,99,99,98,30.04,30.01,4,0,5,0.00
2014-10-9,62.5,54.9,49.3,59.4,53.4,48.8,99,95,82,30.08,30.01,2,0,5,0.01
2014-10-10,62.8,56.2,49.4,58.0,54.7,48.9,100,95,84,30.04,29.97,3,0,5,0.02
2014-10-11,62.2,56.2,53.2,58.0,53.8,50.7,98,92,80,30.18,29.99,12,4,14,0.53
2014-10-12,58.0,54.3,51.4,52.9,50.6,47.9,98,88,75,30.24,30.01,9,2,11,0.01
2014-10-13,59.8,54.7,51.4,55.9,52.8,50.4,98,93,80,30.02,29.61,14,2,17,0.48
2014-10-14,53.4,52.0,50.5,52.2,51.4,49.7,98,98,96,29.81,29.77,2,0,3,0.01
2014-10-15,57.0,55.2,53.9,55.7,54.1,53.1,97,96,93,29.68,29.60,0,0,1,0.20
2014-10-16,56.2,53.6,50.6,53.1,51.9,50.1,98,94,87,29.99,29.88,2,0,4,0.01
2014-10-17,56.5,54.8,54.2,52.7,51.6,51.0,90,89,87,29.68,29.64,2,1,4,0.00
2014-10-19,65.9,64.3,62.3,58.6,58.3,58.1,86,81,76,29.61,29.60,2,1,4,0.00
2014-10-20,61.0,57.1,53.7,58.5,55.5,51.9,98,94,88,29.75,29.67,4,1,6,0.06
2014-10-21,60.1,56.5,53.2,55.7,53.7,52.3,97,91,78,29.83,29.75,2,1,4,0.05
2014-10-22,57.1,56.3,54.7,55.6,54.3,53.7,98,93,89,29.65,29.59,1,0,1,0.34
2014-10-23,56.7,50.9,46.3,51.6,48.0,45.0,96,90,76,29.98,29.69,18,2,22,0.22
2014-10-24,53.3,51.0,46.8,50.2,48.2,45.4,96,90,86,30.02,29.92,4,2,5,0.02
2014-10-25,54.6,52.6,51.5,54.0,51.6,49.8,98,96,88,29.46,29.21,14,3,18,0.64
2014-10-26,55.6,51.9,46.4,51.1,48.7,44.8,95,89,81,30.04,29.87,15,7,22,0.27
2014-10-27,53.7,50.4,44.4,49.3,47.6,42.8,97,90,77,30.10,29.82,4,1,7,0.05
2014-10-28,50.5,49.8,48.8,49.4,48.5,47.4,96,95,94,29.83,29.72,4,2,5,0.02
2014-10-29,58.3,54.5,48.3,55.8,52.5,47.2,98,93,87,30.12,30.01,4,1,5,0.07
2014-10-30,49.2,48.2,47.7,48.4,47.4,46.9,98,97,96,30.01,29.98,3,2,5,0.00
2014-11-2,53.1,51.3,47.9,49.9,48.2,44.5,95,89,77,30.09,30.02,2,0,4,0.03
2014-11-3,55.0,51.8,49.1,53.8,50.8,48.1,98,96,93,30.07,29.94,3,0,4,0.04
2014-11-4,57.6,55.2,51.2,53.0,50.5,49.2,93,84,76,30.27,30.04,21,6,27,0.07
2014-11-5,55.1,53.1,50.4,53.1,51.4,49.0,97,94,90,30.27,29.96,6,1,7,0.07
2014-11-6,61.6,55.1,51.0,55.9,49.9,44.1,99,83,66,30.30,29.68,10,3,15,0.23
2014-11-7,56.5,50.1,43.2,49.3,43.8,40.8,92,79,63,30.50,30.30,8,3,13,0.00
2014-11-8,50.0,48.8,47.1,47.8,47.1,45.9,96,94,92,30.23,30.12,3,0,3,0.00
2014-11-9,57.6,52.6,46.2,51.9,46.9,44.0,93,81,70,30.08,29.84,21,4,24,0.24
2014-11-10,51.0,48.5,44.6,46.3,44.3,41.5,92,85,71,30.25,30.08,4,2,7,0.00
2014-11-11,45.7,40.4,37.2,23.5,15.5,12.0,43,36,30,30.35,30.30,7,5,12,0.00
2014-11-12,44.1,43.0,37.5,23.4,19.7,12.1,45,39,31,30.35,30.13,6,4,16,0.00
2014-11-13,41.9,40.3,38.8,18.7,15.4,13.4,39,36,35,30.03,30.02,5,4,10,0.00
2014-11-14,45.2,38.6,29.9,25.3,21.8,19.1,74,51,36,30.33,30.16,6,3,9,0.00
2014-11-15,44.5,35.9,28.7,31.5,25.6,22.5,86,67,49,30.55,30.33,7,3,10,0.00
2014-11-16,45.8,37.2,31.3,36.2,28.2,21.8,84,70,60,30.55,30.42,6,3,10,0.00
2014-11-17,47.5,42.1,36.4,40.3,35.9,32.3,86,79,69,30.39,30.21,5,2,6,0.00
2014-11-19,47.9,45.7,40.7,41.6,39.9,37.6,90,80,73,30.02,29.82,2,0,6,0.01
2014-11-20,46.5,43.5,41.3,44.2,42.0,40.0,95,94,91,29.94,29.92,2,1,4,0.00
2014-11-21,48.8,47.5,45.5,48.0,46.9,44.6,98,98,97,29.65,29.24,3,0,9,0.14
2014-11-22,47.7,45.5,44.5,44.1,43.3,42.6,94,92,88,29.75,29.70,4,1,5,0.09
2014-11-23,53.4,51.0,48.7,46.3,43.4,41.3,85,75,69,30.22,30.11,20,5,24,0.40
2014-11-27,58.6,55.6,51.6,55.8,54.0,51.1,98,94,89,29.77,29.72,1,1,3,0.05
2014-11-28,46.4,44.1,41.4,42.9,38.2,32.2,94,80,64,29.56,29.47,26,6,32,0.74
2014-11-29,33.5,29.5,25.1,22.7,21.3,19.1,85,72,57,30.25,29.93,7,2,7,0.02
2014-11-30,35.9,31.6,24.8,25.8,23.9,21.8,90,73,59,30.28,30.13,5,2,6,0.00
2014-12-1,40.5,32.1,26.7,34.4,29.0,24.4,94,88,77,30.25,30.13,6,3,8,0.00
2014-12-2,40.8,35.5,31.5,33.8,31.2,28.9,91,85,71,30.25,29.99,5,2,11,0.00
2014-12-3,43.5,38.8,34.8,36.3,34.4,32.2,91,84,71,29.81,29.78,5,2,6,0.00
2014-12-4,40.1,39.2,38.7,37.9,37.0,35.9,95,92,86,29.84,29.80,3,1,5,0.00